createdAt,value
2022-10-08T00:04:46.956Z,58.97
2022-10-08T00:14:57.265Z,57.13
2022-10-08T00:20:03.172Z,59.87
2022-10-08T00:25:10.668Z,60.93
2022-10-08T00:35:19.893Z,57.83
2022-10-08T00:40:26.087Z,56.60
2022-10-08T00:45:32.201Z,56.80
2022-10-08T00:50:39.895Z,55.40
2022-10-08T00:55:45.569Z,56.47
2022-10-08T01:00:52.002Z,55.83
2022-10-08T01:06:12.464Z,58.75
2022-10-08T01:11:30.727Z,58.80
2022-10-08T01:16:46.809Z,58.17
2022-10-08T01:22:07.552Z,56.90
2022-10-08T01:27:43.838Z,58.17
2022-10-08T01:32:52.469Z,57.73
2022-10-08T01:38:00.797Z,56.47
2022-10-08T01:43:09.432Z,55.30
2022-10-08T01:48:17.710Z,57.13
2022-10-08T01:53:27.321Z,56.80
2022-10-08T01:58:55.620Z,57.03
2022-10-08T02:04:18.876Z,57.67
2022-10-08T02:09:27.620Z,56.50
2022-10-08T02:14:36.659Z,57.13
2022-10-08T02:19:47.260Z,57.57
2022-10-08T02:24:57.231Z,58.53
2022-10-08T02:30:06.493Z,56.33
2022-10-08T02:35:20.129Z,57.47
2022-10-08T02:40:27.681Z,58.68
2022-10-08T02:45:35.718Z,57.63
2022-10-08T02:50:43.173Z,58.33
2022-10-08T02:56:04.403Z,59.67
2022-10-08T03:01:27.202Z,57.97
2022-10-08T03:06:34.576Z,57.57
2022-10-08T03:11:40.653Z,61.00
2022-10-08T03:16:48.689Z,60.17
2022-10-08T03:21:57.003Z,59.77
2022-10-08T03:27:02.877Z,58.37
2022-10-08T03:32:07.868Z,56.30
2022-10-08T03:37:13.475Z,57.47
2022-10-08T03:42:19.666Z,56.27
2022-10-08T03:47:24.659Z,56.70
2022-10-08T03:52:31.726Z,58.03
2022-10-08T03:57:37.381Z,61.15
2022-10-08T04:02:43.508Z,57.10
2022-10-08T04:07:49.367Z,56.58
2022-10-08T04:12:55.097Z,57.37
2022-10-08T04:18:00.661Z,57.23
2022-10-08T04:23:05.718Z,57.13
2022-10-08T04:28:11.720Z,55.97
2022-10-08T04:33:16.776Z,56.70
2022-10-08T04:38:23.333Z,54.53
2022-10-08T04:43:29.501Z,54.27
2022-10-08T04:48:35.577Z,61.77
2022-10-08T04:53:51.342Z,56.73
2022-10-08T04:58:58.900Z,56.57
2022-10-08T05:04:03.787Z,55.63
2022-10-08T05:09:10.237Z,41.77
2022-10-08T05:14:15.894Z,55.83
2022-10-08T05:19:22.702Z,55.95
2022-10-08T05:24:29.061Z,55.40
2022-10-08T05:29:35.840Z,55.70
2022-10-08T05:34:41.009Z,55.37
2022-10-08T05:39:46.368Z,54.67
2022-10-08T05:44:52.289Z,54.40
2022-10-08T05:49:57.593Z,54.83
2022-10-08T05:55:03.056Z,54.03
2022-10-08T06:00:08.889Z,54.47
2022-10-08T06:05:14.896Z,55.97
2022-10-08T06:10:20.563Z,55.52
2022-10-08T06:15:25.992Z,55.43
2022-10-08T06:20:32.208Z,57.57
2022-10-08T06:25:40.127Z,54.40
2022-10-08T06:30:45.807Z,56.10
2022-10-08T06:35:51.699Z,55.78
2022-10-08T06:40:59.172Z,55.10
2022-10-08T06:46:07.362Z,55.47
2022-10-08T06:51:15.885Z,55.30
2022-10-08T06:56:22.412Z,56.00
2022-10-08T07:01:33.277Z,55.67
2022-10-08T07:06:36.717Z,55.77
2022-10-08T07:11:42.383Z,57.40
2022-10-08T07:16:47.695Z,55.13
2022-10-08T07:21:56.811Z,54.98
2022-10-08T07:27:00.670Z,55.87
2022-10-08T07:32:06.375Z,55.87
2022-10-08T07:37:11.940Z,56.07
2022-10-08T07:42:17.096Z,56.03
2022-10-08T07:47:22.041Z,55.97
2022-10-08T07:52:29.040Z,54.80
2022-10-08T07:57:34.504Z,56.03
2022-10-08T08:02:39.940Z,55.50
2022-10-08T08:07:47.568Z,55.67
2022-10-08T08:12:53.854Z,55.87
2022-10-08T08:17:58.804Z,56.53
2022-10-08T08:23:04.066Z,57.27
2022-10-08T08:28:09.863Z,54.97
2022-10-08T08:33:16.113Z,55.90
2022-10-08T08:38:22.392Z,55.17
2022-10-08T08:43:28.057Z,54.53
2022-10-08T08:48:37.220Z,55.33
2022-10-08T08:53:43.074Z,56.70
2022-10-08T08:58:52.220Z,56.63
2022-10-08T09:04:00.738Z,56.40
2022-10-08T09:09:23.524Z,60.13
2022-10-08T09:14:41.106Z,59.10
2022-10-08T09:19:48.435Z,59.43
2022-10-08T09:25:01.686Z,58.40
2022-10-08T09:30:09.849Z,59.23
2022-10-08T09:35:17.059Z,59.73
2022-10-08T09:40:24.656Z,60.93
2022-10-08T09:45:44.700Z,60.73
2022-10-08T09:51:07.280Z,60.70
2022-10-08T09:56:15.035Z,60.00
2022-10-08T10:01:20.550Z,58.17
2022-10-08T10:06:35.953Z,57.80
2022-10-08T10:11:45.507Z,58.93
2022-10-08T10:16:53.891Z,59.03
2022-10-08T10:22:15.190Z,58.60
2022-10-08T10:27:29.381Z,59.27
2022-10-08T10:32:38.286Z,58.87
2022-10-08T10:37:49.976Z,58.48
2022-10-08T10:43:00.816Z,59.80
2022-10-08T10:48:07.866Z,57.87
2022-10-08T10:53:19.149Z,59.53
2022-10-08T10:58:30.002Z,59.77
2022-10-08T11:03:53.149Z,56.00
2022-10-08T11:09:01.711Z,56.60
2022-10-08T11:14:31.646Z,56.93
2022-10-08T11:19:42.907Z,56.30
2022-10-08T11:24:54.217Z,55.27
2022-10-08T11:30:15.419Z,59.13
2022-10-08T11:35:41.518Z,57.10
2022-10-08T11:40:52.102Z,56.77
2022-10-08T11:46:30.123Z,55.57
2022-10-08T11:51:39.796Z,56.57
2022-10-08T11:56:52.501Z,55.73
2022-10-08T12:02:04.082Z,56.47
2022-10-08T12:07:31.912Z,56.50
2022-10-08T12:12:57.336Z,57.03
2022-10-08T12:18:16.313Z,57.20
2022-10-08T12:23:26.569Z,56.45
2022-10-08T12:28:37.534Z,54.87
2022-10-08T12:33:43.096Z,55.63
2022-10-08T12:39:14.120Z,56.17
2022-10-08T12:44:38.099Z,55.92
2022-10-08T12:50:01.351Z,55.60
2022-10-08T12:55:07.433Z,56.33
2022-10-08T13:00:16.087Z,56.58
2022-10-08T13:05:36.398Z,56.27
2022-10-08T13:10:43.189Z,55.93
2022-10-08T13:15:51.609Z,55.47
2022-10-08T13:21:06.091Z,56.47
2022-10-08T13:26:47.403Z,56.30
2022-10-08T13:32:07.202Z,55.40
2022-10-08T13:37:32.287Z,56.83
2022-10-08T13:42:42.984Z,57.10
2022-10-08T13:47:48.784Z,56.97
2022-10-08T13:53:00.582Z,56.43
2022-10-08T13:58:08.067Z,57.17
2022-10-08T14:03:14.846Z,57.13
2022-10-08T14:08:23.887Z,56.80
2022-10-08T14:13:30.272Z,57.65
2022-10-08T14:18:36.589Z,58.20
2022-10-08T14:23:42.049Z,57.05
2022-10-08T14:28:48.701Z,57.83
2022-10-08T14:33:54.509Z,56.98
2022-10-08T14:39:01.206Z,57.57
2022-10-08T14:44:07.018Z,58.00
2022-10-08T14:49:12.738Z,58.23
2022-10-08T14:54:18.874Z,57.67
2022-10-08T15:04:28.506Z,57.23
2022-10-08T15:09:34.626Z,56.67
2022-10-08T15:14:39.531Z,58.10
2022-10-08T15:19:45.094Z,56.70
2022-10-08T15:24:49.945Z,57.03
2022-10-08T15:29:55.547Z,56.13
2022-10-08T15:35:01.476Z,56.00
2022-10-08T15:40:08.594Z,55.73
2022-10-08T15:45:13.755Z,54.60
2022-10-08T15:50:19.398Z,55.43
2022-10-08T15:55:26.434Z,54.60
2022-10-08T16:00:43.942Z,55.37
2022-10-08T16:05:49.203Z,53.17
2022-10-08T16:10:58.107Z,52.90
2022-10-08T16:21:08.651Z,52.33
2022-10-08T16:26:17.135Z,54.73
2022-10-08T16:31:22.648Z,52.27
2022-10-08T16:36:40.602Z,52.93
2022-10-08T16:41:46.752Z,53.13
2022-10-08T16:46:54.191Z,53.10
2022-10-08T16:52:04.950Z,56.67
2022-10-08T16:57:10.787Z,57.07
2022-10-08T17:02:16.628Z,54.80
2022-10-08T17:07:23.198Z,52.23
2022-10-08T17:12:28.560Z,51.55
2022-10-08T17:17:33.351Z,52.07
2022-10-08T17:22:38.457Z,51.13
2022-10-08T17:27:43.416Z,50.53
2022-10-08T17:32:48.934Z,60.53
2022-10-08T17:37:55.558Z,54.77
2022-10-08T17:43:01.023Z,54.23
2022-10-08T17:48:05.968Z,54.40
2022-10-08T17:53:12.664Z,53.83
2022-10-08T17:58:17.995Z,52.77
2022-10-08T18:03:23.445Z,53.77
2022-10-08T18:08:29.459Z,51.60
2022-10-08T18:13:34.541Z,50.92
2022-10-08T18:18:39.964Z,49.87
2022-10-08T18:23:47.068Z,49.55
2022-10-08T18:28:56.727Z,50.03
2022-10-08T18:34:04.411Z,50.70
2022-10-08T18:39:17.063Z,49.67
2022-10-08T18:44:26.625Z,50.33
2022-10-08T18:49:33.857Z,49.73
2022-10-08T18:54:39.347Z,51.10
2022-10-08T18:59:44.649Z,51.10
2022-10-08T19:04:51.175Z,51.05
2022-10-08T19:09:57.520Z,55.33
2022-10-08T19:15:04.558Z,49.70
2022-10-08T19:20:10.286Z,49.83
2022-10-08T19:25:15.736Z,49.27
2022-10-08T19:30:26.618Z,49.87
2022-10-08T19:35:31.079Z,50.43
2022-10-08T19:40:36.514Z,50.03
2022-10-08T19:45:42.317Z,51.10
2022-10-08T19:50:47.355Z,49.90
2022-10-08T19:55:55.179Z,50.63
2022-10-08T20:01:08.514Z,50.53
2022-10-08T20:06:20.369Z,49.70
2022-10-08T20:11:24.765Z,50.05
2022-10-08T20:16:38.391Z,50.90
2022-10-08T20:21:44.187Z,51.27
2022-10-08T20:26:50.362Z,50.20
2022-10-08T20:31:59.249Z,50.38
2022-10-08T20:37:05.924Z,51.17
2022-10-08T20:42:11.455Z,50.17
2022-10-08T20:47:18.251Z,50.83
2022-10-08T20:52:23.817Z,50.27
2022-10-08T20:57:30.503Z,50.50
2022-10-08T21:02:37.397Z,51.08
2022-10-08T21:07:42.966Z,50.40
2022-10-08T21:12:49.409Z,50.12
2022-10-08T21:17:55.635Z,49.93
2022-10-08T21:23:00.470Z,50.47
2022-10-08T21:28:07.163Z,49.93
2022-10-08T21:38:17.372Z,49.25
2022-10-08T21:43:22.700Z,49.00
2022-10-08T21:48:29.943Z,49.07
2022-10-08T21:58:43.717Z,47.43
2022-10-08T22:03:48.771Z,48.73
2022-10-08T22:08:56.107Z,48.63
2022-10-08T22:14:01.334Z,52.73
2022-10-08T22:19:07.202Z,47.47
2022-10-08T22:24:13.140Z,48.40
2022-10-08T22:29:18.025Z,48.25
2022-10-08T22:34:22.830Z,47.27
2022-10-08T22:39:28.533Z,47.13
2022-10-08T22:44:34.013Z,48.17
2022-10-08T22:49:39.456Z,49.67
2022-10-08T22:54:44.818Z,47.40
2022-10-08T22:59:50.993Z,48.15
2022-10-08T23:04:56.559Z,48.17
2022-10-08T23:10:02.019Z,46.87
2022-10-08T23:15:07.556Z,47.90
2022-10-08T23:20:13.318Z,47.40
2022-10-08T23:25:18.177Z,46.70
2022-10-08T23:30:42.092Z,47.30
2022-10-08T23:40:35.712Z,46.83
2022-10-08T23:45:41.642Z,47.62
2022-10-08T23:50:51.942Z,46.40
2022-10-08T23:55:57.221Z,47.27
